sensor_id;sensor_type;location;lat;lon;timestamp;P1;durP1;ratioP1;P2;durP2;ratioP2
78197;SDS011;67472;51.554;7.812;2024-01-25T00:01:32;34.95;;;7.55;;
78197;SDS011;67472;51.554;7.812;2024-01-25T00:04:18;46.67;;;7.82;;
78197;SDS011;67472;51.554;7.812;2024-01-25T00:07:07;34.42;;;6.30;;
78197;SDS011;67472;51.554;7.812;2024-01-25T00:09:55;32.08;;;6.90;;
78197;SDS011;67472;51.554;7.812;2024-01-25T00:12:44;23.88;;;6.07;;
78197;SDS011;67472;51.554;7.812;2024-01-25T00:15:32;35.78;;;6.75;;
78197;SDS011;67472;51.554;7.812;2024-01-25T00:18:18;38.83;;;6.65;;
78197;SDS011;67472;51.554;7.812;2024-01-25T00:21:05;34.22;;;8.75;;
78197;SDS011;67472;51.554;7.812;2024-01-25T00:23:51;29.90;;;7.25;;
78197;SDS011;67472;51.554;7.812;2024-01-25T00:26:38;31.35;;;6.45;;
78197;SDS011;67472;51.554;7.812;2024-01-25T00:29:26;35.03;;;6.57;;
78197;SDS011;67472;51.554;7.812;2024-01-25T00:32:12;33.67;;;6.45;;
78197;SDS011;67472;51.554;7.812;2024-01-25T00:34:59;44.67;;;8.30;;
78197;SDS011;67472;51.554;7.812;2024-01-25T00:37:47;38.53;;;8.80;;
78197;SDS011;67472;51.554;7.812;2024-01-25T00:40:35;42.42;;;7.43;;
78197;SDS011;67472;51.554;7.812;2024-01-25T00:43:23;38.85;;;7.53;;
78197;SDS011;67472;51.554;7.812;2024-01-25T00:46:12;33.80;;;6.45;;
78197;SDS011;67472;51.554;7.812;2024-01-25T00:49:00;35.20;;;6.82;;
78197;SDS011;67472;51.554;7.812;2024-01-25T00:51:48;22.73;;;6.43;;
78197;SDS011;67472;51.554;7.812;2024-01-25T00:54:37;31.63;;;8.63;;
78197;SDS011;67472;51.554;7.812;2024-01-25T00:57:24;36.33;;;6.72;;
78197;SDS011;67472;51.554;7.812;2024-01-25T01:00:12;34.60;;;7.30;;
78197;SDS011;67472;51.554;7.812;2024-01-25T01:03:00;36.42;;;7.97;;
78197;SDS011;67472;51.554;7.812;2024-01-25T01:05:49;35.75;;;6.72;;
78197;SDS011;67472;51.554;7.812;2024-01-25T01:08:39;34.50;;;6.85;;
78197;SDS011;67472;51.554;7.812;2024-01-25T01:11:26;28.55;;;7.18;;
78197;SDS011;67472;51.554;7.812;2024-01-25T01:14:13;38.97;;;6.97;;
78197;SDS011;67472;51.554;7.812;2024-01-25T01:16:59;28.30;;;7.07;;
78197;SDS011;67472;51.554;7.812;2024-01-25T01:19:47;31.05;;;5.78;;
78197;SDS011;67472;51.554;7.812;2024-01-25T01:22:33;30.23;;;6.57;;
78197;SDS011;67472;51.554;7.812;2024-01-25T01:25:19;32.30;;;6.28;;
78197;SDS011;67472;51.554;7.812;2024-01-25T01:28:06;22.17;;;5.35;;
78197;SDS011;67472;51.554;7.812;2024-01-25T01:30:52;30.27;;;6.18;;
78197;SDS011;67472;51.554;7.812;2024-01-25T01:33:38;33.67;;;5.60;;
78197;SDS011;67472;51.554;7.812;2024-01-25T01:36:26;33.90;;;6.35;;
78197;SDS011;67472;51.554;7.812;2024-01-25T01:39:13;28.23;;;5.97;;
78197;SDS011;67472;51.554;7.812;2024-01-25T01:41:59;28.70;;;5.50;;
78197;SDS011;67472;51.554;7.812;2024-01-25T01:44:46;28.13;;;5.05;;
78197;SDS011;67472;51.554;7.812;2024-01-25T01:47:32;31.75;;;6.45;;
78197;SDS011;67472;51.554;7.812;2024-01-25T01:50:19;29.52;;;5.35;;
78197;SDS011;67472;51.554;7.812;2024-01-25T01:53:07;27.92;;;5.80;;
78197;SDS011;67472;51.554;7.812;2024-01-25T01:55:53;29.13;;;5.57;;
78197;SDS011;67472;51.554;7.812;2024-01-25T01:58:40;33.50;;;7.43;;
78197;SDS011;67472;51.554;7.812;2024-01-25T02:01:26;33.20;;;6.43;;
78197;SDS011;67472;51.554;7.812;2024-01-25T02:04:13;31.23;;;5.97;;
78197;SDS011;67472;51.554;7.812;2024-01-25T02:06:59;27.48;;;5.75;;
78197;SDS011;67472;51.554;7.812;2024-01-25T02:09:48;26.20;;;5.63;;
78197;SDS011;67472;51.554;7.812;2024-01-25T02:12:35;32.28;;;5.90;;
78197;SDS011;67472;51.554;7.812;2024-01-25T02:15:22;36.90;;;6.05;;
78197;SDS011;67472;51.554;7.812;2024-01-25T02:18:09;26.08;;;5.55;;
78197;SDS011;67472;51.554;7.812;2024-01-25T02:20:56;32.03;;;6.95;;
78197;SDS011;67472;51.554;7.812;2024-01-25T02:23:44;40.88;;;8.05;;
78197;SDS011;67472;51.554;7.812;2024-01-25T02:26:30;36.40;;;6.05;;
78197;SDS011;67472;51.554;7.812;2024-01-25T02:29:16;38.00;;;6.82;;
78197;SDS011;67472;51.554;7.812;2024-01-25T02:32:03;32.22;;;6.25;;
78197;SDS011;67472;51.554;7.812;2024-01-25T02:34:49;33.00;;;7.35;;
78197;SDS011;67472;51.554;7.812;2024-01-25T02:37:36;36.45;;;6.95;;
78197;SDS011;67472;51.554;7.812;2024-01-25T02:40:25;37.00;;;5.38;;
78197;SDS011;67472;51.554;7.812;2024-01-25T02:43:12;31.50;;;5.65;;
78197;SDS011;67472;51.554;7.812;2024-01-25T02:45:58;31.13;;;5.80;;
78197;SDS011;67472;51.554;7.812;2024-01-25T02:48:45;32.65;;;5.68;;
78197;SDS011;67472;51.554;7.812;2024-01-25T02:51:31;29.90;;;4.88;;
78197;SDS011;67472;51.554;7.812;2024-01-25T02:54:18;37.75;;;6.57;;
78197;SDS011;67472;51.554;7.812;2024-01-25T02:57:06;28.75;;;5.88;;
78197;SDS011;67472;51.554;7.812;2024-01-25T02:59:52;34.25;;;5.82;;
78197;SDS011;67472;51.554;7.812;2024-01-25T03:02:41;29.45;;;7.07;;
78197;SDS011;67472;51.554;7.812;2024-01-25T03:05:29;36.53;;;5.68;;
78197;SDS011;67472;51.554;7.812;2024-01-25T03:08:15;27.33;;;5.72;;
78197;SDS011;67472;51.554;7.812;2024-01-25T03:11:03;22.45;;;5.90;;
78197;SDS011;67472;51.554;7.812;2024-01-25T03:13:51;49.42;;;6.40;;
78197;SDS011;67472;51.554;7.812;2024-01-25T03:16:37;28.83;;;5.90;;
78197;SDS011;67472;51.554;7.812;2024-01-25T03:19:24;20.85;;;4.65;;
78197;SDS011;67472;51.554;7.812;2024-01-25T03:22:10;28.48;;;5.18;;
78197;SDS011;67472;51.554;7.812;2024-01-25T03:24:57;31.38;;;6.00;;
78197;SDS011;67472;51.554;7.812;2024-01-25T03:27:44;33.88;;;6.78;;
78197;SDS011;67472;51.554;7.812;2024-01-25T03:30:32;40.85;;;7.30;;
78197;SDS011;67472;51.554;7.812;2024-01-25T03:33:18;30.73;;;6.47;;
78197;SDS011;67472;51.554;7.812;2024-01-25T03:36:04;33.65;;;5.82;;
78197;SDS011;67472;51.554;7.812;2024-01-25T03:38:51;29.67;;;6.90;;
78197;SDS011;67472;51.554;7.812;2024-01-25T03:41:38;17.95;;;4.88;;
78197;SDS011;67472;51.554;7.812;2024-01-25T03:44:24;26.10;;;5.57;;
78197;SDS011;67472;51.554;7.812;2024-01-25T03:47:13;29.35;;;6.30;;
78197;SDS011;67472;51.554;7.812;2024-01-25T03:49:59;29.98;;;5.80;;
78197;SDS011;67472;51.554;7.812;2024-01-25T03:52:45;29.27;;;6.53;;
78197;SDS011;67472;51.554;7.812;2024-01-25T03:55:32;27.42;;;5.93;;
78197;SDS011;67472;51.554;7.812;2024-01-25T03:58:22;22.08;;;5.05;;
78197;SDS011;67472;51.554;7.812;2024-01-25T04:01:08;37.20;;;6.75;;
78197;SDS011;67472;51.554;7.812;2024-01-25T04:03:56;34.10;;;6.38;;
78197;SDS011;67472;51.554;7.812;2024-01-25T04:06:43;35.83;;;5.57;;
78197;SDS011;67472;51.554;7.812;2024-01-25T04:09:31;30.63;;;6.07;;
78197;SDS011;67472;51.554;7.812;2024-01-25T04:12:18;29.35;;;5.35;;
78197;SDS011;67472;51.554;7.812;2024-01-25T04:15:05;25.30;;;5.60;;
78197;SDS011;67472;51.554;7.812;2024-01-25T04:17:52;28.08;;;6.13;;
78197;SDS011;67472;51.554;7.812;2024-01-25T04:20:43;30.23;;;5.97;;
78197;SDS011;67472;51.554;7.812;2024-01-25T04:23:32;35.90;;;5.43;;
78197;SDS011;67472;51.554;7.812;2024-01-25T04:26:20;27.08;;;7.15;;
78197;SDS011;67472;51.554;7.812;2024-01-25T04:29:07;38.38;;;5.70;;
78197;SDS011;67472;51.554;7.812;2024-01-25T04:31:54;28.02;;;6.20;;
78197;SDS011;67472;51.554;7.812;2024-01-25T04:34:40;31.10;;;6.25;;
78197;SDS011;67472;51.554;7.812;2024-01-25T04:37:28;39.55;;;7.05;;
78197;SDS011;67472;51.554;7.812;2024-01-25T04:40:14;24.00;;;5.47;;
78197;SDS011;67472;51.554;7.812;2024-01-25T04:43:00;37.13;;;6.80;;
78197;SDS011;67472;51.554;7.812;2024-01-25T04:45:47;37.85;;;7.00;;
78197;SDS011;67472;51.554;7.812;2024-01-25T04:48:35;28.58;;;5.88;;
78197;SDS011;67472;51.554;7.812;2024-01-25T04:51:21;28.67;;;5.45;;
78197;SDS011;67472;51.554;7.812;2024-01-25T04:54:09;33.53;;;7.50;;
78197;SDS011;67472;51.554;7.812;2024-01-25T04:56:57;30.02;;;6.78;;
78197;SDS011;67472;51.554;7.812;2024-01-25T04:59:44;31.05;;;8.43;;
78197;SDS011;67472;51.554;7.812;2024-01-25T05:02:32;32.85;;;7.65;;
78197;SDS011;67472;51.554;7.812;2024-01-25T05:05:18;38.92;;;8.23;;
78197;SDS011;67472;51.554;7.812;2024-01-25T05:08:06;31.92;;;6.85;;
78197;SDS011;67472;51.554;7.812;2024-01-25T05:10:55;27.60;;;6.85;;
78197;SDS011;67472;51.554;7.812;2024-01-25T05:13:42;36.08;;;7.00;;
78197;SDS011;67472;51.554;7.812;2024-01-25T05:16:28;33.05;;;6.03;;
78197;SDS011;67472;51.554;7.812;2024-01-25T05:19:14;32.10;;;8.60;;
78197;SDS011;67472;51.554;7.812;2024-01-25T05:22:00;37.50;;;7.32;;
78197;SDS011;67472;51.554;7.812;2024-01-25T05:24:50;33.22;;;6.47;;
78197;SDS011;67472;51.554;7.812;2024-01-25T05:27:40;40.47;;;7.43;;
78197;SDS011;67472;51.554;7.812;2024-01-25T05:30:27;32.63;;;7.00;;
78197;SDS011;67472;51.554;7.812;2024-01-25T05:33:14;32.65;;;6.70;;
78197;SDS011;67472;51.554;7.812;2024-01-25T05:36:01;32.20;;;7.00;;
78197;SDS011;67472;51.554;7.812;2024-01-25T05:38:48;31.33;;;6.53;;
78197;SDS011;67472;51.554;7.812;2024-01-25T05:41:36;29.70;;;7.22;;
78197;SDS011;67472;51.554;7.812;2024-01-25T05:44:25;27.45;;;7.10;;
78197;SDS011;67472;51.554;7.812;2024-01-25T05:47:11;28.25;;;6.72;;
78197;SDS011;67472;51.554;7.812;2024-01-25T05:49:58;32.17;;;7.53;;
78197;SDS011;67472;51.554;7.812;2024-01-25T05:52:45;35.45;;;7.20;;
78197;SDS011;67472;51.554;7.812;2024-01-25T05:55:34;22.15;;;5.97;;
78197;SDS011;67472;51.554;7.812;2024-01-25T05:58:21;31.73;;;7.00;;
78197;SDS011;67472;51.554;7.812;2024-01-25T06:01:09;32.97;;;7.25;;
78197;SDS011;67472;51.554;7.812;2024-01-25T06:03:55;35.70;;;7.32;;
78197;SDS011;67472;51.554;7.812;2024-01-25T06:06:42;35.42;;;7.13;;
78197;SDS011;67472;51.554;7.812;2024-01-25T06:09:29;24.15;;;5.40;;
78197;SDS011;67472;51.554;7.812;2024-01-25T06:12:17;34.47;;;7.30;;
78197;SDS011;67472;51.554;7.812;2024-01-25T06:15:05;28.50;;;6.65;;
78197;SDS011;67472;51.554;7.812;2024-01-25T06:17:55;40.47;;;7.43;;
78197;SDS011;67472;51.554;7.812;2024-01-25T06:20:41;26.35;;;7.05;;
78197;SDS011;67472;51.554;7.812;2024-01-25T06:23:28;27.85;;;6.00;;
78197;SDS011;67472;51.554;7.812;2024-01-25T06:26:15;38.88;;;6.95;;
78197;SDS011;67472;51.554;7.812;2024-01-25T06:29:02;32.75;;;7.13;;
78197;SDS011;67472;51.554;7.812;2024-01-25T06:31:48;40.30;;;7.50;;
78197;SDS011;67472;51.554;7.812;2024-01-25T06:34:37;30.98;;;7.22;;
78197;SDS011;67472;51.554;7.812;2024-01-25T06:37:23;44.45;;;9.25;;
78197;SDS011;67472;51.554;7.812;2024-01-25T06:40:10;32.63;;;7.10;;
78197;SDS011;67472;51.554;7.812;2024-01-25T06:42:57;32.42;;;8.23;;
78197;SDS011;67472;51.554;7.812;2024-01-25T06:45:44;37.45;;;8.00;;
78197;SDS011;67472;51.554;7.812;2024-01-25T06:48:31;35.28;;;7.68;;
78197;SDS011;67472;51.554;7.812;2024-01-25T06:51:20;45.60;;;8.75;;
78197;SDS011;67472;51.554;7.812;2024-01-25T06:54:08;35.80;;;6.82;;
78197;SDS011;67472;51.554;7.812;2024-01-25T06:56:55;49.67;;;9.57;;
78197;SDS011;67472;51.554;7.812;2024-01-25T06:59:41;39.95;;;7.57;;
78197;SDS011;67472;51.554;7.812;2024-01-25T07:02:27;42.08;;;7.53;;
78197;SDS011;67472;51.554;7.812;2024-01-25T07:05:15;36.38;;;9.02;;
78197;SDS011;67472;51.554;7.812;2024-01-25T07:08:03;34.83;;;7.10;;
78197;SDS011;67472;51.554;7.812;2024-01-25T07:10:51;39.13;;;9.02;;
78197;SDS011;67472;51.554;7.812;2024-01-25T07:13:37;43.88;;;8.40;;
78197;SDS011;67472;51.554;7.812;2024-01-25T07:16:24;32.33;;;8.00;;
78197;SDS011;67472;51.554;7.812;2024-01-25T07:19:10;34.70;;;7.13;;
78197;SDS011;67472;51.554;7.812;2024-01-25T07:21:57;41.83;;;8.27;;
78197;SDS011;67472;51.554;7.812;2024-01-25T07:24:45;40.55;;;9.85;;
78197;SDS011;67472;51.554;7.812;2024-01-25T07:27:31;50.05;;;8.85;;
78197;SDS011;67472;51.554;7.812;2024-01-25T07:30:17;35.75;;;7.43;;
78197;SDS011;67472;51.554;7.812;2024-01-25T07:33:04;53.78;;;9.23;;
78197;SDS011;67472;51.554;7.812;2024-01-25T07:35:51;31.60;;;7.25;;
78197;SDS011;67472;51.554;7.812;2024-01-25T07:38:37;32.08;;;7.93;;
78197;SDS011;67472;51.554;7.812;2024-01-25T07:41:25;47.25;;;9.18;;
78197;SDS011;67472;51.554;7.812;2024-01-25T07:44:12;38.75;;;8.30;;
78197;SDS011;67472;51.554;7.812;2024-01-25T07:46:59;44.22;;;7.90;;
78197;SDS011;67472;51.554;7.812;2024-01-25T07:49:44;54.28;;;8.00;;
78197;SDS011;67472;51.554;7.812;2024-01-25T07:52:31;35.10;;;8.45;;
78197;SDS011;67472;51.554;7.812;2024-01-25T07:55:18;38.85;;;7.93;;
78197;SDS011;67472;51.554;7.812;2024-01-25T07:58:06;30.00;;;7.10;;
78197;SDS011;67472;51.554;7.812;2024-01-25T08:00:52;42.13;;;8.38;;
78197;SDS011;67472;51.554;7.812;2024-01-25T08:03:38;31.55;;;7.30;;
78197;SDS011;67472;51.554;7.812;2024-01-25T08:06:26;46.08;;;9.68;;
78197;SDS011;67472;51.554;7.812;2024-01-25T08:09:12;42.65;;;8.85;;
78197;SDS011;67472;51.554;7.812;2024-01-25T08:11:59;33.08;;;8.60;;
78197;SDS011;67472;51.554;7.812;2024-01-25T08:14:48;32.25;;;6.90;;
78197;SDS011;67472;51.554;7.812;2024-01-25T08:17:34;34.72;;;9.18;;
78197;SDS011;67472;51.554;7.812;2024-01-25T08:20:21;41.97;;;8.80;;
78197;SDS011;67472;51.554;7.812;2024-01-25T08:23:07;37.95;;;9.50;;
78197;SDS011;67472;51.554;7.812;2024-01-25T08:25:55;47.28;;;8.70;;
78197;SDS011;67472;51.554;7.812;2024-01-25T08:28:41;41.95;;;9.38;;
78197;SDS011;67472;51.554;7.812;2024-01-25T08:31:30;37.58;;;8.20;;
78197;SDS011;67472;51.554;7.812;2024-01-25T08:34:16;35.10;;;8.45;;
78197;SDS011;67472;51.554;7.812;2024-01-25T08:37:02;43.67;;;10.13;;
78197;SDS011;67472;51.554;7.812;2024-01-25T08:39:49;43.65;;;8.20;;
78197;SDS011;67472;51.554;7.812;2024-01-25T08:42:36;35.28;;;7.72;;
78197;SDS011;67472;51.554;7.812;2024-01-25T08:45:25;39.55;;;8.70;;
78197;SDS011;67472;51.554;7.812;2024-01-25T08:48:13;38.03;;;8.95;;
78197;SDS011;67472;51.554;7.812;2024-01-25T08:50:59;35.72;;;8.05;;
78197;SDS011;67472;51.554;7.812;2024-01-25T08:53:45;43.60;;;9.20;;
78197;SDS011;67472;51.554;7.812;2024-01-25T08:56:35;35.00;;;8.38;;
78197;SDS011;67472;51.554;7.812;2024-01-25T08:59:22;37.20;;;8.90;;
78197;SDS011;67472;51.554;7.812;2024-01-25T09:02:08;48.70;;;10.23;;
78197;SDS011;67472;51.554;7.812;2024-01-25T09:04:56;45.35;;;10.25;;
78197;SDS011;67472;51.554;7.812;2024-01-25T09:07:43;60.33;;;11.52;;
78197;SDS011;67472;51.554;7.812;2024-01-25T09:10:30;46.28;;;11.45;;
78197;SDS011;67472;51.554;7.812;2024-01-25T09:13:18;43.55;;;10.70;;
78197;SDS011;67472;51.554;7.812;2024-01-25T09:16:05;38.30;;;10.27;;
78197;SDS011;67472;51.554;7.812;2024-01-25T09:18:51;43.22;;;11.63;;
78197;SDS011;67472;51.554;7.812;2024-01-25T09:21:39;48.85;;;12.27;;
78197;SDS011;67472;51.554;7.812;2024-01-25T09:24:26;41.97;;;12.63;;
78197;SDS011;67472;51.554;7.812;2024-01-25T09:27:13;37.95;;;13.05;;
78197;SDS011;67472;51.554;7.812;2024-01-25T09:30:00;43.38;;;12.80;;
78197;SDS011;67472;51.554;7.812;2024-01-25T09:32:47;48.22;;;13.27;;
78197;SDS011;67472;51.554;7.812;2024-01-25T09:35:35;55.97;;;14.43;;
78197;SDS011;67472;51.554;7.812;2024-01-25T09:38:23;56.35;;;14.48;;
78197;SDS011;67472;51.554;7.812;2024-01-25T09:41:09;47.05;;;13.93;;
78197;SDS011;67472;51.554;7.812;2024-01-25T09:43:56;54.33;;;14.65;;
78197;SDS011;67472;51.554;7.812;2024-01-25T09:46:42;44.58;;;13.43;;
78197;SDS011;67472;51.554;7.812;2024-01-25T09:49:31;40.28;;;12.27;;
78197;SDS011;67472;51.554;7.812;2024-01-25T09:52:18;56.35;;;13.70;;
78197;SDS011;67472;51.554;7.812;2024-01-25T09:55:11;45.80;;;13.52;;
78197;SDS011;67472;51.554;7.812;2024-01-25T09:58:00;47.33;;;16.33;;
78197;SDS011;67472;51.554;7.812;2024-01-25T10:00:47;56.55;;;13.48;;
78197;SDS011;67472;51.554;7.812;2024-01-25T10:03:34;51.33;;;13.93;;
78197;SDS011;67472;51.554;7.812;2024-01-25T10:06:21;47.25;;;11.77;;
78197;SDS011;67472;51.554;7.812;2024-01-25T10:09:08;49.45;;;12.02;;
78197;SDS011;67472;51.554;7.812;2024-01-25T10:11:56;43.42;;;13.10;;
78197;SDS011;67472;51.554;7.812;2024-01-25T10:14:42;40.15;;;11.82;;
78197;SDS011;67472;51.554;7.812;2024-01-25T10:17:29;40.70;;;11.85;;
78197;SDS011;67472;51.554;7.812;2024-01-25T10:20:15;50.08;;;13.02;;
78197;SDS011;67472;51.554;7.812;2024-01-25T10:23:02;49.25;;;13.07;;
78197;SDS011;67472;51.554;7.812;2024-01-25T10:25:48;40.63;;;13.15;;
78197;SDS011;67472;51.554;7.812;2024-01-25T10:28:38;52.55;;;13.55;;
78197;SDS011;67472;51.554;7.812;2024-01-25T10:31:24;41.97;;;13.55;;
78197;SDS011;67472;51.554;7.812;2024-01-25T10:34:11;51.25;;;14.40;;
78197;SDS011;67472;51.554;7.812;2024-01-25T10:37:00;44.08;;;15.20;;
78197;SDS011;67472;51.554;7.812;2024-01-25T10:39:48;48.33;;;16.52;;
78197;SDS011;67472;51.554;7.812;2024-01-25T10:42:34;50.85;;;14.57;;
78197;SDS011;67472;51.554;7.812;2024-01-25T10:45:23;60.78;;;16.77;;
78197;SDS011;67472;51.554;7.812;2024-01-25T10:48:11;50.17;;;16.23;;
78197;SDS011;67472;51.554;7.812;2024-01-25T10:50:58;57.42;;;16.67;;
78197;SDS011;67472;51.554;7.812;2024-01-25T10:53:47;43.33;;;15.15;;
78197;SDS011;67472;51.554;7.812;2024-01-25T10:56:34;51.85;;;16.60;;
78197;SDS011;67472;51.554;7.812;2024-01-25T10:59:21;39.63;;;14.38;;
78197;SDS011;67472;51.554;7.812;2024-01-25T11:02:11;44.28;;;14.00;;
78197;SDS011;67472;51.554;7.812;2024-01-25T11:04:58;45.35;;;13.32;;
78197;SDS011;67472;51.554;7.812;2024-01-25T11:07:46;40.35;;;12.90;;
78197;SDS011;67472;51.554;7.812;2024-01-25T11:10:36;39.45;;;14.75;;
78197;SDS011;67472;51.554;7.812;2024-01-25T11:13:24;36.97;;;12.90;;
78197;SDS011;67472;51.554;7.812;2024-01-25T11:16:13;41.13;;;12.98;;
78197;SDS011;67472;51.554;7.812;2024-01-25T11:19:04;42.67;;;12.75;;
78197;SDS011;67472;51.554;7.812;2024-01-25T11:21:52;39.83;;;13.30;;
78197;SDS011;67472;51.554;7.812;2024-01-25T11:24:38;44.30;;;13.80;;
78197;SDS011;67472;51.554;7.812;2024-01-25T11:27:25;47.10;;;13.55;;
78197;SDS011;67472;51.554;7.812;2024-01-25T11:30:12;42.47;;;13.35;;
78197;SDS011;67472;51.554;7.812;2024-01-25T11:33:00;48.33;;;15.85;;
78197;SDS011;67472;51.554;7.812;2024-01-25T11:35:55;41.85;;;12.57;;
78197;SDS011;67472;51.554;7.812;2024-01-25T11:38:42;40.15;;;12.32;;
78197;SDS011;67472;51.554;7.812;2024-01-25T11:41:30;42.85;;;11.27;;
78197;SDS011;67472;51.554;7.812;2024-01-25T11:44:17;35.42;;;10.65;;
78197;SDS011;67472;51.554;7.812;2024-01-25T11:47:05;38.22;;;11.60;;
78197;SDS011;67472;51.554;7.812;2024-01-25T11:49:52;42.15;;;11.05;;
78197;SDS011;67472;51.554;7.812;2024-01-25T11:52:40;41.20;;;10.68;;
78197;SDS011;67472;51.554;7.812;2024-01-25T11:55:27;40.00;;;9.57;;
78197;SDS011;67472;51.554;7.812;2024-01-25T11:58:13;38.88;;;9.07;;
78197;SDS011;67472;51.554;7.812;2024-01-25T12:01:01;42.42;;;10.65;;
78197;SDS011;67472;51.554;7.812;2024-01-25T12:03:52;36.28;;;9.55;;
78197;SDS011;67472;51.554;7.812;2024-01-25T12:06:39;30.88;;;8.85;;
78197;SDS011;67472;51.554;7.812;2024-01-25T12:09:28;39.50;;;11.27;;
78197;SDS011;67472;51.554;7.812;2024-01-25T12:12:14;37.30;;;9.98;;
78197;SDS011;67472;51.554;7.812;2024-01-25T12:15:02;29.45;;;8.88;;
78197;SDS011;67472;51.554;7.812;2024-01-25T12:17:51;37.72;;;9.27;;
78197;SDS011;67472;51.554;7.812;2024-01-25T12:20:39;34.13;;;9.57;;
78197;SDS011;67472;51.554;7.812;2024-01-25T12:23:32;36.15;;;9.43;;
78197;SDS011;67472;51.554;7.812;2024-01-25T12:26:20;37.63;;;10.38;;
78197;SDS011;67472;51.554;7.812;2024-01-25T12:29:07;34.60;;;8.82;;
78197;SDS011;67472;51.554;7.812;2024-01-25T12:31:55;30.73;;;9.35;;
78197;SDS011;67472;51.554;7.812;2024-01-25T12:34:43;33.15;;;9.20;;
78197;SDS011;67472;51.554;7.812;2024-01-25T12:37:39;33.70;;;9.13;;
78197;SDS011;67472;51.554;7.812;2024-01-25T12:40:25;38.33;;;10.07;;
78197;SDS011;67472;51.554;7.812;2024-01-25T12:43:13;46.65;;;10.00;;
78197;SDS011;67472;51.554;7.812;2024-01-25T12:46:01;30.90;;;8.85;;
78197;SDS011;67472;51.554;7.812;2024-01-25T12:48:49;36.08;;;9.10;;
78197;SDS011;67472;51.554;7.812;2024-01-25T12:51:39;31.83;;;9.48;;
78197;SDS011;67472;51.554;7.812;2024-01-25T12:54:26;38.10;;;8.35;;
78197;SDS011;67472;51.554;7.812;2024-01-25T12:57:14;32.17;;;8.48;;
78197;SDS011;67472;51.554;7.812;2024-01-25T13:00:02;42.38;;;8.85;;
78197;SDS011;67472;51.554;7.812;2024-01-25T13:02:49;35.92;;;9.18;;
78197;SDS011;67472;51.554;7.812;2024-01-25T13:05:35;37.50;;;8.55;;
78197;SDS011;67472;51.554;7.812;2024-01-25T13:08:23;35.75;;;8.32;;
78197;SDS011;67472;51.554;7.812;2024-01-25T13:11:11;25.63;;;6.68;;
78197;SDS011;67472;51.554;7.812;2024-01-25T13:13:57;42.03;;;9.00;;
78197;SDS011;67472;51.554;7.812;2024-01-25T13:16:45;25.75;;;7.40;;
78197;SDS011;67472;51.554;7.812;2024-01-25T13:19:31;32.40;;;9.07;;
78197;SDS011;67472;51.554;7.812;2024-01-25T13:22:17;34.97;;;7.75;;
78197;SDS011;67472;51.554;7.812;2024-01-25T13:25:07;31.92;;;7.80;;
78197;SDS011;67472;51.554;7.812;2024-01-25T13:27:57;39.90;;;8.73;;
78197;SDS011;67472;51.554;7.812;2024-01-25T13:30:43;25.40;;;7.10;;
78197;SDS011;67472;51.554;7.812;2024-01-25T13:33:42;27.30;;;6.82;;
78197;SDS011;67472;51.554;7.812;2024-01-25T13:36:29;24.50;;;6.72;;
78197;SDS011;67472;51.554;7.812;2024-01-25T13:39:17;34.00;;;8.15;;
78197;SDS011;67472;51.554;7.812;2024-01-25T13:42:03;25.27;;;6.65;;
78197;SDS011;67472;51.554;7.812;2024-01-25T13:44:51;30.73;;;6.30;;
78197;SDS011;67472;51.554;7.812;2024-01-25T13:47:37;33.35;;;6.93;;
78197;SDS011;67472;51.554;7.812;2024-01-25T13:50:26;29.15;;;6.25;;
78197;SDS011;67472;51.554;7.812;2024-01-25T13:53:13;25.17;;;6.63;;
78197;SDS011;67472;51.554;7.812;2024-01-25T13:55:59;34.55;;;6.88;;
78197;SDS011;67472;51.554;7.812;2024-01-25T13:58:45;24.98;;;6.43;;
78197;SDS011;67472;51.554;7.812;2024-01-25T14:01:33;30.40;;;6.80;;
78197;SDS011;67472;51.554;7.812;2024-01-25T14:04:19;31.83;;;7.18;;
78197;SDS011;67472;51.554;7.812;2024-01-25T14:07:07;28.50;;;6.72;;
78197;SDS011;67472;51.554;7.812;2024-01-25T14:09:54;25.27;;;6.30;;
78197;SDS011;67472;51.554;7.812;2024-01-25T14:12:40;31.58;;;6.43;;
78197;SDS011;67472;51.554;7.812;2024-01-25T14:15:28;24.30;;;6.63;;
78197;SDS011;67472;51.554;7.812;2024-01-25T14:18:14;17.85;;;5.78;;
78197;SDS011;67472;51.554;7.812;2024-01-25T14:21:00;24.58;;;6.28;;
78197;SDS011;67472;51.554;7.812;2024-01-25T14:23:48;23.08;;;6.30;;
78197;SDS011;67472;51.554;7.812;2024-01-25T14:26:35;30.83;;;6.53;;
78197;SDS011;67472;51.554;7.812;2024-01-25T14:29:21;21.55;;;5.80;;
78197;SDS011;67472;51.554;7.812;2024-01-25T14:32:09;23.30;;;6.50;;
78197;SDS011;67472;51.554;7.812;2024-01-25T14:34:55;37.90;;;6.72;;
78197;SDS011;67472;51.554;7.812;2024-01-25T14:37:42;31.75;;;5.72;;
78197;SDS011;67472;51.554;7.812;2024-01-25T14:40:30;22.10;;;5.78;;
78197;SDS011;67472;51.554;7.812;2024-01-25T14:43:16;27.15;;;7.22;;
78197;SDS011;67472;51.554;7.812;2024-01-25T14:46:03;35.10;;;6.60;;
78197;SDS011;67472;51.554;7.812;2024-01-25T14:48:50;38.45;;;5.95;;
78197;SDS011;67472;51.554;7.812;2024-01-25T14:51:37;26.52;;;5.97;;
78197;SDS011;67472;51.554;7.812;2024-01-25T14:54:23;18.77;;;5.80;;
78197;SDS011;67472;51.554;7.812;2024-01-25T14:57:12;32.78;;;6.57;;
78197;SDS011;67472;51.554;7.812;2024-01-25T14:59:58;31.25;;;5.50;;
78197;SDS011;67472;51.554;7.812;2024-01-25T15:02:45;29.85;;;7.00;;
78197;SDS011;67472;51.554;7.812;2024-01-25T15:05:34;16.42;;;5.65;;
78197;SDS011;67472;51.554;7.812;2024-01-25T15:08:20;21.00;;;5.45;;
78197;SDS011;67472;51.554;7.812;2024-01-25T15:11:06;20.77;;;5.90;;
78197;SDS011;67472;51.554;7.812;2024-01-25T15:13:54;23.90;;;6.65;;
78197;SDS011;67472;51.554;7.812;2024-01-25T15:16:40;23.80;;;7.00;;
78197;SDS011;67472;51.554;7.812;2024-01-25T15:19:27;27.48;;;8.23;;
78197;SDS011;67472;51.554;7.812;2024-01-25T15:22:13;21.58;;;6.65;;
78197;SDS011;67472;51.554;7.812;2024-01-25T15:25:00;24.58;;;6.45;;
78197;SDS011;67472;51.554;7.812;2024-01-25T15:27:48;27.00;;;7.07;;
78197;SDS011;67472;51.554;7.812;2024-01-25T15:30:36;22.38;;;5.65;;
78197;SDS011;67472;51.554;7.812;2024-01-25T15:33:22;25.80;;;7.05;;
78197;SDS011;67472;51.554;7.812;2024-01-25T15:36:09;27.60;;;6.50;;
78197;SDS011;67472;51.554;7.812;2024-01-25T15:38:56;23.38;;;6.85;;
78197;SDS011;67472;51.554;7.812;2024-01-25T15:41:42;36.55;;;7.28;;
78197;SDS011;67472;51.554;7.812;2024-01-25T15:44:30;20.92;;;7.07;;
78197;SDS011;67472;51.554;7.812;2024-01-25T15:47:18;27.85;;;6.30;;
78197;SDS011;67472;51.554;7.812;2024-01-25T15:50:05;25.58;;;6.72;;
78197;SDS011;67472;51.554;7.812;2024-01-25T15:52:52;21.10;;;6.43;;
78197;SDS011;67472;51.554;7.812;2024-01-25T15:55:39;30.55;;;8.35;;
78197;SDS011;67472;51.554;7.812;2024-01-25T15:58:29;32.42;;;9.27;;
78197;SDS011;67472;51.554;7.812;2024-01-25T16:01:16;25.33;;;7.13;;
78197;SDS011;67472;51.554;7.812;2024-01-25T16:04:04;22.92;;;5.97;;
78197;SDS011;67472;51.554;7.812;2024-01-25T16:06:50;28.02;;;7.40;;
78197;SDS011;67472;51.554;7.812;2024-01-25T16:09:36;29.65;;;7.20;;
78197;SDS011;67472;51.554;7.812;2024-01-25T16:12:23;27.38;;;7.25;;
78197;SDS011;67472;51.554;7.812;2024-01-25T16:15:09;26.27;;;7.18;;
78197;SDS011;67472;51.554;7.812;2024-01-25T16:17:55;26.42;;;7.05;;
78197;SDS011;67472;51.554;7.812;2024-01-25T16:20:43;26.45;;;7.13;;
78197;SDS011;67472;51.554;7.812;2024-01-25T16:23:30;19.33;;;6.80;;
78197;SDS011;67472;51.554;7.812;2024-01-25T16:26:16;25.15;;;7.00;;
78197;SDS011;67472;51.554;7.812;2024-01-25T16:29:02;38.00;;;7.00;;